KPRO/PRO METAR and TAF weather

Enter ICAO airport designator
Station Type Date Time Source
KPRO METAR 2020/01/20 10:15 UTC NOAA

KPRO 201015Z AUTO 30006KT 10SM OVC005 M19/M22 A3061 RMK AO2 T11951220


Station Type Date Time Source
KPRO Decoded METAR 2020/01/20 10:15 UTC NOAA

Station name not available
Jan 20, 2020 - 05:15 AM EST / 2020.01.20 1015 UTC
Wind: from the WNW (300 degrees) at 7 MPH (6 KT):0
Visibility: 10 mile(s):0
Sky conditions: overcast
Temperature: -3.1 F (-19.5 C)
Windchill: -16 F (-27 C):2
Dew Point: -7.6 F (-22.0 C)
Relative Humidity: 80%
Pressure (altimeter): 30.61 in. Hg (1036 hPa)
ob: KPRO 201015Z AUTO 30006KT 10SM OVC005 M19/M22 A3061 RMK AO2 T11951220
cycle: 10

Station Type Date Time Source
KPRO TAF UTC NOAA

Error!

Example: see airport list